sensor_id;sensor_type;location;lat;lon;timestamp;pressure;altitude;pressure_sealevel;temperature;humidity
37610;BME280;23457;51.966;8.230;2023-11-19T00:00:08;100212.91;;;9.56;100.00
37610;BME280;23457;51.966;8.230;2023-11-19T00:02:40;100212.00;;;9.49;100.00
37610;BME280;23457;51.966;8.230;2023-11-19T00:05:11;100209.59;;;9.67;100.00
37610;BME280;23457;51.966;8.230;2023-11-19T00:07:40;100197.38;;;9.57;100.00
37610;BME280;23457;51.966;8.230;2023-11-19T00:10:11;100202.47;;;9.51;100.00
37610;BME280;23457;51.966;8.230;2023-11-19T00:12:42;100208.69;;;9.64;100.00
37610;BME280;23457;51.966;8.230;2023-11-19T00:15:11;100201.75;;;9.60;100.00
37610;BME280;23457;51.966;8.230;2023-11-19T00:17:42;100207.75;;;9.57;100.00
37610;BME280;23457;51.966;8.230;2023-11-19T00:20:13;100199.41;;;9.84;100.00
37610;BME280;23457;51.966;8.230;2023-11-19T00:22:41;100201.00;;;9.72;100.00
37610;BME280;23457;51.966;8.230;2023-11-19T00:25:14;100193.28;;;9.79;100.00
37610;BME280;23457;51.966;8.230;2023-11-19T00:27:40;100185.47;;;9.75;100.00
37610;BME280;23457;51.966;8.230;2023-11-19T00:30:11;100181.28;;;9.90;100.00
37610;BME280;23457;51.966;8.230;2023-11-19T00:32:39;100178.66;;;9.86;100.00
37610;BME280;23457;51.966;8.230;2023-11-19T00:35:06;100174.41;;;9.92;100.00
37610;BME280;23457;51.966;8.230;2023-11-19T00:37:42;100175.28;;;9.93;100.00
37610;BME280;23457;51.966;8.230;2023-11-19T00:40:10;100167.50;;;9.94;100.00
37610;BME280;23457;51.966;8.230;2023-11-19T00:42:38;100172.81;;;10.06;100.00
37610;BME280;23457;51.966;8.230;2023-11-19T00:45:05;100169.53;;;10.21;100.00
37610;BME280;23457;51.966;8.230;2023-11-19T00:47:36;100168.53;;;10.10;100.00
37610;BME280;23457;51.966;8.230;2023-11-19T00:50:03;100162.50;;;10.13;100.00
37610;BME280;23457;51.966;8.230;2023-11-19T00:52:30;100162.47;;;10.11;100.00
37610;BME280;23457;51.966;8.230;2023-11-19T00:54:57;100153.09;;;10.22;100.00
37610;BME280;23457;51.966;8.230;2023-11-19T00:57:24;100147.06;;;10.29;100.00
37610;BME280;23457;51.966;8.230;2023-11-19T00:59:51;100131.41;;;10.20;100.00
37610;BME280;23457;51.966;8.230;2023-11-19T01:02:19;100128.84;;;10.23;100.00
37610;BME280;23457;51.966;8.230;2023-11-19T01:04:45;100130.66;;;10.33;100.00
37610;BME280;23457;51.966;8.230;2023-11-19T01:07:12;100132.34;;;10.28;100.00
37610;BME280;23457;51.966;8.230;2023-11-19T01:09:42;100126.25;;;10.26;100.00
37610;BME280;23457;51.966;8.230;2023-11-19T01:12:09;100128.94;;;10.35;100.00
37610;BME280;23457;51.966;8.230;2023-11-19T01:14:37;100133.22;;;10.30;100.00
37610;BME280;23457;51.966;8.230;2023-11-19T01:17:05;100125.56;;;10.46;100.00
37610;BME280;23457;51.966;8.230;2023-11-19T01:19:32;100133.41;;;10.55;100.00
37610;BME280;23457;51.966;8.230;2023-11-19T01:21:59;100123.91;;;10.57;100.00
37610;BME280;23457;51.966;8.230;2023-11-19T01:24:26;100133.31;;;10.43;100.00
37610;BME280;23457;51.966;8.230;2023-11-19T01:26:55;100129.81;;;10.39;100.00
37610;BME280;23457;51.966;8.230;2023-11-19T01:29:24;100118.69;;;10.55;100.00
37610;BME280;23457;51.966;8.230;2023-11-19T01:31:51;100126.50;;;10.58;100.00
37610;BME280;23457;51.966;8.230;2023-11-19T01:34:18;100121.28;;;10.54;100.00
37610;BME280;23457;51.966;8.230;2023-11-19T01:36:46;100115.28;;;10.61;100.00
37610;BME280;23457;51.966;8.230;2023-11-19T01:39:15;100109.25;;;10.69;100.00
37610;BME280;23457;51.966;8.230;2023-11-19T01:41:43;100104.84;;;10.58;100.00
37610;BME280;23457;51.966;8.230;2023-11-19T01:44:10;100097.19;;;10.76;100.00
37610;BME280;23457;51.966;8.230;2023-11-19T01:46:44;100093.69;;;10.72;100.00
37610;BME280;23457;51.966;8.230;2023-11-19T01:49:11;100096.28;;;10.77;100.00
37610;BME280;23457;51.966;8.230;2023-11-19T01:51:40;100090.22;;;10.73;100.00
37610;BME280;23457;51.966;8.230;2023-11-19T01:54:07;100084.19;;;10.82;100.00
37610;BME280;23457;51.966;8.230;2023-11-19T01:56:35;100072.94;;;10.83;100.00
37610;BME280;23457;51.966;8.230;2023-11-19T01:59:04;100079.84;;;10.80;100.00
37610;BME280;23457;51.966;8.230;2023-11-19T02:01:31;100069.44;;;10.73;100.00
37610;BME280;23457;51.966;8.230;2023-11-19T02:04:01;100065.97;;;10.81;100.00
37610;BME280;23457;51.966;8.230;2023-11-19T02:06:29;100057.34;;;10.85;100.00
37610;BME280;23457;51.966;8.230;2023-11-19T02:08:58;100044.34;;;10.89;100.00
37610;BME280;23457;51.966;8.230;2023-11-19T02:11:25;100048.72;;;10.89;100.00
37610;BME280;23457;51.966;8.230;2023-11-19T02:13:56;100056.50;;;10.90;100.00
37610;BME280;23457;51.966;8.230;2023-11-19T02:16:23;100037.41;;;10.90;100.00
37610;BME280;23457;51.966;8.230;2023-11-19T02:18:50;100037.41;;;10.82;100.00
37610;BME280;23457;51.966;8.230;2023-11-19T02:21:17;100039.22;;;10.98;100.00
37610;BME280;23457;51.966;8.230;2023-11-19T02:23:44;100038.34;;;10.99;100.00
37610;BME280;23457;51.966;8.230;2023-11-19T02:26:37;100042.69;;;11.00;100.00
37610;BME280;23457;51.966;8.230;2023-11-19T02:29:05;100036.66;;;11.10;100.00
37610;BME280;23457;51.966;8.230;2023-11-19T02:31:34;100031.47;;;11.20;100.00
37610;BME280;23457;51.966;8.230;2023-11-19T02:34:01;100019.31;;;11.09;100.00
37610;BME280;23457;51.966;8.230;2023-11-19T02:36:30;100025.41;;;11.13;100.00
37610;BME280;23457;51.966;8.230;2023-11-19T02:38:58;100022.81;;;11.22;100.00
37610;BME280;23457;51.966;8.230;2023-11-19T02:41:25;100031.47;;;11.21;100.00
37610;BME280;23457;51.966;8.230;2023-11-19T02:43:52;100024.53;;;11.22;100.00
37610;BME280;23457;51.966;8.230;2023-11-19T02:46:18;100019.34;;;11.23;100.00
37610;BME280;23457;51.966;8.230;2023-11-19T02:48:45;100015.03;;;11.27;100.00
37610;BME280;23457;51.966;8.230;2023-11-19T02:51:13;100011.56;;;11.43;100.00
37610;BME280;23457;51.966;8.230;2023-11-19T02:53:40;100009.81;;;11.42;100.00
37610;BME280;23457;51.966;8.230;2023-11-19T02:56:07;100015.03;;;11.36;100.00
37610;BME280;23457;51.966;8.230;2023-11-19T02:58:52;100021.13;;;11.39;100.00
37610;BME280;23457;51.966;8.230;2023-11-19T03:01:26;100015.03;;;11.54;100.00
37610;BME280;23457;51.966;8.230;2023-11-19T03:03:58;100002.03;;;11.60;100.00
37610;BME280;23457;51.966;8.230;2023-11-19T03:06:26;100008.97;;;11.54;100.00
37610;BME280;23457;51.966;8.230;2023-11-19T03:08:57;99995.09;;;11.59;100.00
37610;BME280;23457;51.966;8.230;2023-11-19T03:11:24;99980.34;;;11.70;100.00
37610;BME280;23457;51.966;8.230;2023-11-19T03:13:51;99976.88;;;11.68;100.00
37610;BME280;23457;51.966;8.230;2023-11-19T03:16:18;99973.41;;;11.66;100.00
37610;BME280;23457;51.966;8.230;2023-11-19T03:18:45;99988.16;;;11.75;100.00
37610;BME280;23457;51.966;8.230;2023-11-19T03:21:11;99978.66;;;11.75;100.00
37610;BME280;23457;51.966;8.230;2023-11-19T03:23:39;99982.09;;;11.71;100.00
37610;BME280;23457;51.966;8.230;2023-11-19T03:26:07;99982.13;;;11.77;100.00
37610;BME280;23457;51.966;8.230;2023-11-19T03:28:34;99989.06;;;11.84;100.00
37610;BME280;23457;51.966;8.230;2023-11-19T03:31:04;99992.53;;;11.82;100.00
37610;BME280;23457;51.966;8.230;2023-11-19T03:33:31;99991.66;;;11.83;100.00
37610;BME280;23457;51.966;8.230;2023-11-19T03:35:58;99985.56;;;11.92;100.00
37610;BME280;23457;51.966;8.230;2023-11-19T03:38:25;99990.78;;;11.98;100.00
37610;BME280;23457;51.966;8.230;2023-11-19T03:40:52;99982.97;;;11.98;100.00
37610;BME280;23457;51.966;8.230;2023-11-19T03:43:20;99975.13;;;12.10;100.00
37610;BME280;23457;51.966;8.230;2023-11-19T03:45:47;99982.09;;;11.96;100.00
37610;BME280;23457;51.966;8.230;2023-11-19T03:48:14;99973.44;;;12.03;100.00
37610;BME280;23457;51.966;8.230;2023-11-19T03:50:45;99985.56;;;12.08;100.00
37610;BME280;23457;51.966;8.230;2023-11-19T03:53:12;100004.66;;;11.95;100.00
37610;BME280;23457;51.966;8.230;2023-11-19T03:55:40;100002.06;;;12.00;100.00
37610;BME280;23457;51.966;8.230;2023-11-19T03:58:07;100004.66;;;12.10;100.00
37610;BME280;23457;51.966;8.230;2023-11-19T04:00:34;100002.06;;;12.12;100.00
37610;BME280;23457;51.966;8.230;2023-11-19T04:03:00;100007.25;;;12.13;100.00
37610;BME280;23457;51.966;8.230;2023-11-19T04:05:27;100006.38;;;12.28;100.00
37610;BME280;23457;51.966;8.230;2023-11-19T04:07:54;99996.81;;;12.18;100.00
37610;BME280;23457;51.966;8.230;2023-11-19T04:10:21;100000.28;;;12.17;100.00
37610;BME280;23457;51.966;8.230;2023-11-19T04:12:49;100000.28;;;12.23;100.00
37610;BME280;23457;51.966;8.230;2023-11-19T04:15:16;99985.53;;;12.28;100.00
37610;BME280;23457;51.966;8.230;2023-11-19T04:17:43;99980.31;;;12.25;100.00
37610;BME280;23457;51.966;8.230;2023-11-19T04:20:13;99996.81;;;12.19;100.00
37610;BME280;23457;51.966;8.230;2023-11-19T04:22:41;99986.38;;;12.35;100.00
37610;BME280;23457;51.966;8.230;2023-11-19T04:25:08;99991.59;;;12.18;100.00
37610;BME280;23457;51.966;8.230;2023-11-19T04:27:38;99986.38;;;12.33;100.00
37610;BME280;23457;51.966;8.230;2023-11-19T04:30:08;99989.88;;;12.18;100.00
37610;BME280;23457;51.966;8.230;2023-11-19T04:32:46;99990.75;;;12.28;100.00
37610;BME280;23457;51.966;8.230;2023-11-19T04:35:12;99986.38;;;12.35;100.00
37610;BME280;23457;51.966;8.230;2023-11-19T04:37:39;99985.50;;;12.37;100.00
37610;BME280;23457;51.966;8.230;2023-11-19T04:40:06;99978.59;;;12.24;100.00
37610;BME280;23457;51.966;8.230;2023-11-19T04:42:41;99984.69;;;12.15;100.00
37610;BME280;23457;51.966;8.230;2023-11-19T04:45:08;99972.53;;;12.13;100.00
37610;BME280;23457;51.966;8.230;2023-11-19T04:47:44;99982.06;;;12.08;100.00
37610;BME280;23457;51.966;8.230;2023-11-19T04:50:11;99969.91;;;12.04;100.00
37610;BME280;23457;51.966;8.230;2023-11-19T04:52:38;99962.13;;;12.01;100.00
37610;BME280;23457;51.966;8.230;2023-11-19T04:55:12;99965.63;;;11.89;100.00
37610;BME280;23457;51.966;8.230;2023-11-19T04:57:41;99951.72;;;11.96;100.00
37610;BME280;23457;51.966;8.230;2023-11-19T05:00:08;99969.09;;;11.97;100.00
37610;BME280;23457;51.966;8.230;2023-11-19T05:02:42;99964.75;;;12.01;100.00
37610;BME280;23457;51.966;8.230;2023-11-19T05:05:12;99969.06;;;11.91;100.00
37610;BME280;23457;51.966;8.230;2023-11-19T05:07:39;99977.75;;;11.96;100.00
37610;BME280;23457;51.966;8.230;2023-11-19T05:10:06;99976.91;;;11.90;100.00
37610;BME280;23457;51.966;8.230;2023-11-19T05:12:33;99982.09;;;11.93;100.00
37610;BME280;23457;51.966;8.230;2023-11-19T05:15:00;99987.28;;;12.05;100.00
37610;BME280;23457;51.966;8.230;2023-11-19T05:17:27;99988.16;;;12.04;100.00
37610;BME280;23457;51.966;8.230;2023-11-19T05:19:54;99987.31;;;11.99;100.00
37610;BME280;23457;51.966;8.230;2023-11-19T05:22:21;99989.91;;;12.00;100.00
37610;BME280;23457;51.966;8.230;2023-11-19T05:24:48;99996.00;;;11.99;100.00
37610;BME280;23457;51.966;8.230;2023-11-19T05:27:16;99996.00;;;11.96;100.00
37610;BME280;23457;51.966;8.230;2023-11-19T05:29:43;99997.72;;;11.96;100.00
37610;BME280;23457;51.966;8.230;2023-11-19T05:32:10;99990.81;;;11.89;100.00
37610;BME280;23457;51.966;8.230;2023-11-19T05:34:38;99996.00;;;11.99;100.00
37610;BME280;23457;51.966;8.230;2023-11-19T05:37:18;99990.78;;;11.92;100.00
37610;BME280;23457;51.966;8.230;2023-11-19T05:39:45;99989.03;;;11.98;100.00
37610;BME280;23457;51.966;8.230;2023-11-19T05:42:12;99996.84;;;11.98;100.00
37610;BME280;23457;51.966;8.230;2023-11-19T05:44:39;99992.53;;;12.02;100.00
37610;BME280;23457;51.966;8.230;2023-11-19T05:47:07;99992.50;;;11.93;100.00
37610;BME280;23457;51.966;8.230;2023-11-19T05:49:34;99996.84;;;11.91;100.00
37610;BME280;23457;51.966;8.230;2023-11-19T05:52:01;100011.59;;;11.95;100.00
37610;BME280;23457;51.966;8.230;2023-11-19T05:54:30;100006.41;;;11.92;100.00
37610;BME280;23457;51.966;8.230;2023-11-19T05:56:58;100015.94;;;11.91;100.00
37610;BME280;23457;51.966;8.230;2023-11-19T05:59:24;100013.34;;;11.96;100.00
37610;BME280;23457;51.966;8.230;2023-11-19T06:01:52;100009.00;;;11.98;100.00
37610;BME280;23457;51.966;8.230;2023-11-19T06:04:19;100011.63;;;11.90;100.00
37610;BME280;23457;51.966;8.230;2023-11-19T06:06:46;100008.16;;;11.87;100.00
37610;BME280;23457;51.966;8.230;2023-11-19T06:09:12;100008.16;;;11.82;100.00
37610;BME280;23457;51.966;8.230;2023-11-19T06:11:40;99996.84;;;11.74;100.00
37610;BME280;23457;51.966;8.230;2023-11-19T06:14:06;100007.28;;;11.88;100.00
37610;BME280;23457;51.966;8.230;2023-11-19T06:16:33;100009.88;;;11.84;100.00
37610;BME280;23457;51.966;8.230;2023-11-19T06:19:01;100018.59;;;11.77;100.00
37610;BME280;23457;51.966;8.230;2023-11-19T06:21:27;100018.53;;;11.74;100.00
37610;BME280;23457;51.966;8.230;2023-11-19T06:23:54;100010.72;;;11.71;100.00
37610;BME280;23457;51.966;8.230;2023-11-19T06:26:21;100011.59;;;11.70;100.00
37610;BME280;23457;51.966;8.230;2023-11-19T06:28:49;100027.19;;;11.67;100.00
37610;BME280;23457;51.966;8.230;2023-11-19T06:31:16;100023.78;;;11.76;100.00
37610;BME280;23457;51.966;8.230;2023-11-19T06:33:43;100019.41;;;11.79;100.00
37610;BME280;23457;51.966;8.230;2023-11-19T06:36:09;100018.59;;;11.77;100.00
37610;BME280;23457;51.966;8.230;2023-11-19T06:38:37;100014.22;;;11.81;100.00
37610;BME280;23457;51.966;8.230;2023-11-19T06:41:07;100031.59;;;11.76;100.00
37610;BME280;23457;51.966;8.230;2023-11-19T06:43:36;100042.84;;;11.78;100.00
37610;BME280;23457;51.966;8.230;2023-11-19T06:46:06;100025.50;;;11.81;100.00
37610;BME280;23457;51.966;8.230;2023-11-19T06:48:40;100025.50;;;11.83;100.00
37610;BME280;23457;51.966;8.230;2023-11-19T06:51:10;100042.00;;;11.82;100.00
37610;BME280;23457;51.966;8.230;2023-11-19T06:53:36;100045.47;;;11.89;100.00
37610;BME280;23457;51.966;8.230;2023-11-19T06:56:03;100041.13;;;11.75;100.00
37610;BME280;23457;51.966;8.230;2023-11-19T06:58:35;100035.91;;;11.84;100.00
37610;BME280;23457;51.966;8.230;2023-11-19T07:01:02;100036.78;;;11.80;100.00
37610;BME280;23457;51.966;8.230;2023-11-19T07:03:31;100044.59;;;11.79;100.00
37610;BME280;23457;51.966;8.230;2023-11-19T07:05:57;100035.94;;;11.75;100.00
37610;BME280;23457;51.966;8.230;2023-11-19T07:08:25;100042.00;;;11.80;100.00
37610;BME280;23457;51.966;8.230;2023-11-19T07:10:53;100055.03;;;11.77;100.00
37610;BME280;23457;51.966;8.230;2023-11-19T07:13:20;100053.28;;;11.82;100.00
37610;BME280;23457;51.966;8.230;2023-11-19T07:15:47;100068.88;;;11.73;100.00
37610;BME280;23457;51.966;8.230;2023-11-19T07:18:14;100068.03;;;11.76;100.00
37610;BME280;23457;51.966;8.230;2023-11-19T07:20:41;100066.28;;;11.78;100.00
37610;BME280;23457;51.966;8.230;2023-11-19T07:23:08;100062.78;;;11.73;100.00
37610;BME280;23457;51.966;8.230;2023-11-19T07:25:36;100058.50;;;11.76;100.00
37610;BME280;23457;51.966;8.230;2023-11-19T07:28:03;100060.22;;;11.80;100.00
37610;BME280;23457;51.966;8.230;2023-11-19T07:30:31;100049.81;;;11.77;100.00
37610;BME280;23457;51.966;8.230;2023-11-19T07:32:58;100055.88;;;11.79;100.00
37610;BME280;23457;51.966;8.230;2023-11-19T07:35:25;100059.38;;;11.77;100.00
37610;BME280;23457;51.966;8.230;2023-11-19T07:37:51;100063.69;;;11.82;100.00
37610;BME280;23457;51.966;8.230;2023-11-19T07:40:19;100070.66;;;11.77;100.00
37610;BME280;23457;51.966;8.230;2023-11-19T07:42:46;100074.97;;;11.81;100.00
37610;BME280;23457;51.966;8.230;2023-11-19T07:45:17;100074.13;;;11.90;100.00
37610;BME280;23457;51.966;8.230;2023-11-19T07:47:44;100069.78;;;11.84;100.00
37610;BME280;23457;51.966;8.230;2023-11-19T07:50:13;100072.38;;;11.83;100.00
37610;BME280;23457;51.966;8.230;2023-11-19T07:52:43;100075.84;;;11.90;100.00
37610;BME280;23457;51.966;8.230;2023-11-19T07:55:13;100073.25;;;11.83;100.00
37610;BME280;23457;51.966;8.230;2023-11-19T07:57:39;100084.50;;;11.81;100.00
37610;BME280;23457;51.966;8.230;2023-11-19T08:00:07;100094.06;;;11.82;100.00
37610;BME280;23457;51.966;8.230;2023-11-19T08:02:39;100092.34;;;11.89;100.00
37610;BME280;23457;51.966;8.230;2023-11-19T08:05:07;100091.47;;;11.83;100.00
37610;BME280;23457;51.966;8.230;2023-11-19T08:07:36;100089.72;;;11.84;100.00
37610;BME280;23457;51.966;8.230;2023-11-19T08:10:04;100097.50;;;11.75;100.00
37610;BME280;23457;51.966;8.230;2023-11-19T08:12:31;100096.63;;;11.70;100.00
37610;BME280;23457;51.966;8.230;2023-11-19T08:14:58;100097.53;;;11.81;100.00
37610;BME280;23457;51.966;8.230;2023-11-19T08:17:25;100101.88;;;11.83;100.00
37610;BME280;23457;51.966;8.230;2023-11-19T08:19:51;100103.59;;;11.78;100.00
37610;BME280;23457;51.966;8.230;2023-11-19T08:22:18;100115.78;;;11.95;100.00
37610;BME280;23457;51.966;8.230;2023-11-19T08:24:45;100105.34;;;12.04;100.00
37610;BME280;23457;51.966;8.230;2023-11-19T08:27:12;100114.91;;;12.06;100.00
37610;BME280;23457;51.966;8.230;2023-11-19T08:29:38;100114.03;;;11.95;100.00
37610;BME280;23457;51.966;8.230;2023-11-19T08:32:06;100115.78;;;12.07;100.00
37610;BME280;23457;51.966;8.230;2023-11-19T08:34:33;100117.53;;;12.02;100.00
37610;BME280;23457;51.966;8.230;2023-11-19T08:37:00;100118.41;;;12.01;100.00
37610;BME280;23457;51.966;8.230;2023-11-19T08:39:27;100115.78;;;12.07;100.00
37610;BME280;23457;51.966;8.230;2023-11-19T08:41:54;100111.44;;;12.09;100.00
37610;BME280;23457;51.966;8.230;2023-11-19T08:44:22;100123.59;;;12.10;100.00
37610;BME280;23457;51.966;8.230;2023-11-19T08:46:49;100125.31;;;11.96;100.00
37610;BME280;23457;51.966;8.230;2023-11-19T08:49:16;100124.47;;;11.97;100.00
37610;BME280;23457;51.966;8.230;2023-11-19T08:51:43;100132.25;;;11.92;100.00
37610;BME280;23457;51.966;8.230;2023-11-19T08:54:09;100127.91;;;11.94;100.00
37610;BME280;23457;51.966;8.230;2023-11-19T08:56:37;100130.53;;;12.08;100.00
37610;BME280;23457;51.966;8.230;2023-11-19T08:59:05;100134.00;;;11.92;100.00
37610;BME280;23457;51.966;8.230;2023-11-19T09:01:32;100129.66;;;11.91;100.00
37610;BME280;23457;51.966;8.230;2023-11-19T09:03:59;100134.88;;;12.06;100.00
37610;BME280;23457;51.966;8.230;2023-11-19T09:06:26;100127.94;;;12.14;100.00
37610;BME280;23457;51.966;8.230;2023-11-19T09:08:54;100140.94;;;12.03;100.00
37610;BME280;23457;51.966;8.230;2023-11-19T09:11:24;100139.25;;;12.14;100.00
37610;BME280;23457;51.966;8.230;2023-11-19T09:13:51;100138.34;;;12.20;100.00
37610;BME280;23457;51.966;8.230;2023-11-19T09:16:18;100143.53;;;12.03;100.00
37610;BME280;23457;51.966;8.230;2023-11-19T09:18:45;100147.94;;;12.13;100.00
37610;BME280;23457;51.966;8.230;2023-11-19T09:21:11;100141.84;;;12.13;100.00
37610;BME280;23457;51.966;8.230;2023-11-19T09:23:38;100140.09;;;12.33;100.00
37610;BME280;23457;51.966;8.230;2023-11-19T09:26:06;100148.78;;;12.32;100.00
37610;BME280;23457;51.966;8.230;2023-11-19T09:28:34;100146.19;;;12.22;100.00
37610;BME280;23457;51.966;8.230;2023-11-19T09:31:02;100141.84;;;12.13;100.00
37610;BME280;23457;51.966;8.230;2023-11-19T09:33:31;100133.16;;;12.12;100.00
37610;BME280;23457;51.966;8.230;2023-11-19T09:35:58;100142.69;;;12.06;100.00
37610;BME280;23457;51.966;8.230;2023-11-19T09:38:24;100137.50;;;12.23;100.00
37610;BME280;23457;51.966;8.230;2023-11-19T09:40:52;100142.72;;;12.27;100.00
37610;BME280;23457;51.966;8.230;2023-11-19T09:43:18;100148.78;;;12.38;100.00
37610;BME280;23457;51.966;8.230;2023-11-19T09:45:49;100142.72;;;12.53;100.00
37610;BME280;23457;51.966;8.230;2023-11-19T09:48:17;100141.81;;;12.65;100.00
37610;BME280;23457;51.966;8.230;2023-11-19T09:50:48;100143.50;;;12.90;100.00
37610;BME280;23457;51.966;8.230;2023-11-19T09:53:15;100149.59;;;12.89;100.00
37610;BME280;23457;51.966;8.230;2023-11-19T09:55:42;100131.31;;;12.92;100.00
37610;BME280;23457;51.966;8.230;2023-11-19T09:58:11;100146.97;;;12.83;100.00
37610;BME280;23457;51.966;8.230;2023-11-19T10:00:40;100145.25;;;12.85;100.00
37610;BME280;23457;51.966;8.230;2023-11-19T10:03:09;100132.19;;;12.92;100.00
37610;BME280;23457;51.966;8.230;2023-11-19T10:05:37;100138.31;;;12.72;100.00
37610;BME280;23457;51.966;8.230;2023-11-19T10:08:07;100145.28;;;12.61;100.00
37610;BME280;23457;51.966;8.230;2023-11-19T10:10:34;100140.09;;;12.64;100.00
37610;BME280;23457;51.966;8.230;2023-11-19T10:13:02;100136.63;;;12.49;100.00
37610;BME280;23457;51.966;8.230;2023-11-19T10:15:35;100140.09;;;12.45;100.00
37610;BME280;23457;51.966;8.230;2023-11-19T10:18:02;100139.22;;;12.48;100.00
37610;BME280;23457;51.966;8.230;2023-11-19T10:20:37;100136.59;;;12.62;100.00
37610;BME280;23457;51.966;8.230;2023-11-19T10:23:04;100141.78;;;12.77;100.00
37610;BME280;23457;51.966;8.230;2023-11-19T10:25:32;100138.28;;;12.84;100.00
37610;BME280;23457;51.966;8.230;2023-11-19T10:28:00;100137.41;;;12.80;100.00
37610;BME280;23457;51.966;8.230;2023-11-19T10:30:28;100140.00;;;13.03;100.00
37610;BME280;23457;51.966;8.230;2023-11-19T10:33:02;100136.56;;;12.87;100.00
37610;BME280;23457;51.966;8.230;2023-11-19T10:35:30;100139.13;;;13.04;100.00
37610;BME280;23457;51.966;8.230;2023-11-19T10:37:59;100139.97;;;13.09;100.00
37610;BME280;23457;51.966;8.230;2023-11-19T10:40:38;100134.75;;;13.12;100.00
37610;BME280;23457;51.966;8.230;2023-11-19T10:43:07;100140.00;;;13.03;100.00
37610;BME280;23457;51.966;8.230;2023-11-19T10:45:38;100137.38;;;13.03;100.00
37610;BME280;23457;51.966;8.230;2023-11-19T10:48:06;100142.66;;;12.76;100.00
37610;BME280;23457;51.966;8.230;2023-11-19T10:50:34;100147.84;;;12.89;100.00
37610;BME280;23457;51.966;8.230;2023-11-19T10:53:03;100132.25;;;12.65;100.00
37610;BME280;23457;51.966;8.230;2023-11-19T10:55:32;100128.78;;;12.62;100.00
37610;BME280;23457;51.966;8.230;2023-11-19T10:58:09;100129.63;;;12.74;100.00
37610;BME280;23457;51.966;8.230;2023-11-19T11:00:41;100127.03;;;12.57;100.00
37610;BME280;23457;51.966;8.230;2023-11-19T11:03:20;100129.66;;;12.50;100.00
37610;BME280;23457;51.966;8.230;2023-11-19T11:05:48;100121.81;;;12.74;100.00
37610;BME280;23457;51.966;8.230;2023-11-19T11:08:18;100127.03;;;12.71;100.00
37610;BME280;23457;51.966;8.230;2023-11-19T11:10:46;100125.28;;;12.73;100.00
37610;BME280;23457;51.966;8.230;2023-11-19T11:13:18;100117.47;;;12.78;100.00
37610;BME280;23457;51.966;8.230;2023-11-19T11:15:48;100127.03;;;12.73;100.00
37610;BME280;23457;51.966;8.230;2023-11-19T11:18:16;100119.19;;;12.76;100.00
37610;BME280;23457;51.966;8.230;2023-11-19T11:20:45;100125.31;;;12.61;100.00
37610;BME280;23457;51.966;8.230;2023-11-19T11:28:58;100114.88;;;12.58;100.00
37610;BME280;23457;51.966;8.230;2023-11-19T11:31:39;100114.88;;;12.64;100.00
37610;BME280;23457;51.966;8.230;2023-11-19T11:37:11;100119.25;;;12.39;100.00
37610;BME280;23457;51.966;8.230;2023-11-19T11:39:46;100112.31;;;12.34;100.00
37610;BME280;23457;51.966;8.230;2023-11-19T11:50:15;100113.19;;;12.39;100.00
37610;BME280;23457;51.966;8.230;2023-11-19T11:55:33;100119.22;;;12.42;100.00
37610;BME280;23457;51.966;8.230;2023-11-19T11:58:01;100117.50;;;12.44;100.00
37610;BME280;23457;51.966;8.230;2023-11-19T12:00:32;100109.69;;;12.46;100.00
37610;BME280;23457;51.966;8.230;2023-11-19T12:03:00;100110.50;;;12.69;100.00
37610;BME280;23457;51.966;8.230;2023-11-19T12:05:29;100101.84;;;12.63;100.00
37610;BME280;23457;51.966;8.230;2023-11-19T12:08:02;100095.72;;;12.73;100.00
37610;BME280;23457;51.966;8.230;2023-11-19T12:10:32;100102.69;;;12.75;100.00
37610;BME280;23457;51.966;8.230;2023-11-19T12:13:05;100098.22;;;13.05;100.00
37610;BME280;23457;51.966;8.230;2023-11-19T12:15:33;100093.09;;;12.82;100.00
37610;BME280;23457;51.966;8.230;2023-11-19T12:18:20;100084.41;;;12.80;100.00
37610;BME280;23457;51.966;8.230;2023-11-19T12:20:48;100088.75;;;12.84;100.00
37610;BME280;23457;51.966;8.230;2023-11-19T12:23:15;100082.69;;;12.73;100.00
37610;BME280;23457;51.966;8.230;2023-11-19T12:25:42;100093.09;;;12.86;100.00
37610;BME280;23457;51.966;8.230;2023-11-19T12:28:12;100089.63;;;12.83;100.00
37610;BME280;23457;51.966;8.230;2023-11-19T12:30:40;100084.44;;;12.74;100.00
37610;BME280;23457;51.966;8.230;2023-11-19T12:33:11;100083.53;;;12.79;100.00
37610;BME280;23457;51.966;8.230;2023-11-19T12:35:42;100083.59;;;12.58;100.00
37610;BME280;23457;51.966;8.230;2023-11-19T12:40:47;100067.88;;;12.81;100.00
37610;BME280;23457;51.966;8.230;2023-11-19T12:43:23;100063.53;;;12.86;100.00
37610;BME280;23457;51.966;8.230;2023-11-19T12:45:50;100066.97;;;12.94;100.00
37610;BME280;23457;51.966;8.230;2023-11-19T12:48:17;100060.00;;;12.93;100.00
37610;BME280;23457;51.966;8.230;2023-11-19T12:51:10;100053.91;;;13.02;100.00
37610;BME280;23457;51.966;8.230;2023-11-19T12:53:51;100058.25;;;12.98;100.00
37610;BME280;23457;51.966;8.230;2023-11-19T12:56:21;100063.47;;;13.04;100.00
37610;BME280;23457;51.966;8.230;2023-11-19T12:58:49;100064.28;;;13.23;100.00
37610;BME280;23457;51.966;8.230;2023-11-19T13:01:18;100066.75;;;13.43;100.00
37610;BME280;23457;51.966;8.230;2023-11-19T13:03:48;100055.34;;;13.63;100.00
37610;BME280;23457;51.966;8.230;2023-11-19T13:06:16;100054.53;;;13.54;100.00
37610;BME280;23457;51.966;8.230;2023-11-19T13:08:44;100054.72;;;13.19;100.00
37610;BME280;23457;51.966;8.230;2023-11-19T13:11:12;100057.19;;;13.46;100.00